createdAt,value
2022-11-24T00:02:06.221Z,97633.28
2022-11-24T00:05:07.756Z,97635.88
2022-11-24T00:08:09.250Z,97641.03
2022-11-24T00:11:14.372Z,97650.59
2022-11-24T00:14:15.725Z,97648.88
2022-11-24T00:17:17.063Z,97652.25
2022-11-24T00:20:18.415Z,97660.91
2022-11-24T00:23:19.798Z,97665.19
2022-11-24T00:26:21.967Z,97675.53
2022-11-24T00:29:23.343Z,97688.50
2022-11-24T00:32:24.684Z,97683.34
2022-11-24T00:35:26.011Z,97680.78
2022-11-24T00:38:27.410Z,97679.03
2022-11-24T00:41:29.169Z,97686.81
2022-11-24T00:44:30.796Z,97686.84
2022-11-24T00:47:32.942Z,97703.25
2022-11-24T00:50:34.322Z,97700.72
2022-11-24T00:53:35.670Z,97718.91
2022-11-24T00:56:37.042Z,97712.00
2022-11-24T00:59:38.385Z,97722.44
2022-11-24T01:02:39.976Z,97718.09
2022-11-24T01:05:41.423Z,97716.38
2022-11-24T01:08:42.795Z,97726.78
2022-11-24T01:12:02.503Z,97724.13
2022-11-24T01:15:03.926Z,97726.72
2022-11-24T01:18:05.443Z,97726.72
2022-11-24T01:21:10.130Z,97727.59
2022-11-24T01:24:12.001Z,97728.47
2022-11-24T01:27:13.336Z,97725.00
2022-11-24T01:30:14.691Z,97727.59
2022-11-24T01:33:16.070Z,97728.47
2022-11-24T01:36:17.450Z,97737.09
2022-11-24T01:39:18.774Z,97729.34
2022-11-24T01:42:20.088Z,97736.28
2022-11-24T01:45:31.905Z,97729.31
2022-11-24T01:48:35.268Z,97746.63
2022-11-24T01:51:37.193Z,97741.44
2022-11-24T01:54:42.793Z,97750.06
2022-11-24T01:58:04.402Z,97740.59
2022-11-24T02:01:05.928Z,97744.06
2022-11-24T02:04:08.465Z,97739.75
2022-11-24T02:07:09.931Z,97747.53
2022-11-24T02:10:14.758Z,97739.75
2022-11-24T02:13:16.140Z,97729.38
2022-11-24T02:16:17.593Z,97738.91
2022-11-24T02:19:37.417Z,97733.75
2022-11-24T02:22:41.902Z,97730.28
2022-11-24T02:26:05.206Z,97730.28
2022-11-24T02:29:06.542Z,97724.22
2022-11-24T02:32:07.928Z,97720.78
2022-11-24T02:35:09.648Z,97725.94
2022-11-24T02:38:14.033Z,97726.81
2022-11-24T02:41:16.647Z,97725.97
2022-11-24T02:44:18.004Z,97734.59
2022-11-24T02:47:19.343Z,97726.81
2022-11-24T02:50:20.754Z,97725.94
2022-11-24T02:53:22.127Z,97730.28
2022-11-24T02:56:23.460Z,97740.63
2022-11-24T02:59:24.864Z,97744.09
2022-11-24T03:02:26.251Z,97742.38
2022-11-24T03:05:27.643Z,97740.66
2022-11-24T03:08:28.982Z,97750.13
2022-11-24T03:11:30.486Z,97751.00
2022-11-24T03:14:32.144Z,97750.13
2022-11-24T03:17:33.710Z,97757.94
2022-11-24T03:20:35.077Z,97758.81
2022-11-24T03:23:36.397Z,97754.44
2022-11-24T03:26:37.748Z,97755.34
2022-11-24T03:29:39.164Z,97764.84
2022-11-24T03:32:41.873Z,97758.75
2022-11-24T03:35:43.203Z,97757.00
2022-11-24T03:38:44.660Z,97757.00
2022-11-24T03:41:46.093Z,97757.84
2022-11-24T03:44:47.431Z,97765.66
2022-11-24T03:47:52.269Z,97770.84
2022-11-24T03:50:57.306Z,97778.63
2022-11-24T03:53:58.650Z,97788.13
2022-11-24T03:56:59.968Z,97779.50
2022-11-24T04:00:01.365Z,97775.19
2022-11-24T04:03:02.786Z,97790.75
2022-11-24T04:06:04.143Z,97789.88
2022-11-24T04:09:05.621Z,97805.44
2022-11-24T04:12:45.554Z,97806.31
2022-11-24T04:15:46.971Z,97809.78
2022-11-24T04:18:48.361Z,97808.00
2022-11-24T04:21:49.733Z,97810.59
2022-11-24T04:24:51.109Z,97811.47
2022-11-24T04:27:53.128Z,97829.69
2022-11-24T04:30:54.481Z,97827.94
2022-11-24T04:33:55.848Z,97830.53
2022-11-24T04:36:57.159Z,97848.69
2022-11-24T04:39:58.503Z,97833.13
2022-11-24T04:42:59.847Z,97850.44
2022-11-24T04:46:01.612Z,97833.13
2022-11-24T04:49:02.954Z,97832.25
2022-11-24T04:52:04.336Z,97832.28
2022-11-24T04:55:05.875Z,97849.56
2022-11-24T04:58:08.422Z,97847.84
2022-11-24T05:01:09.782Z,97839.19
2022-11-24T05:04:11.764Z,97851.31
2022-11-24T05:07:18.423Z,97859.06
2022-11-24T05:10:35.909Z,97858.22
2022-11-24T05:13:37.302Z,97852.13
2022-11-24T05:16:38.710Z,97860.78
2022-11-24T05:19:40.115Z,97853.00
2022-11-24T05:22:41.432Z,97860.81
2022-11-24T05:25:47.490Z,97852.16
2022-11-24T05:28:49.222Z,97852.16
2022-11-24T05:31:50.588Z,97846.97
2022-11-24T05:34:53.087Z,97844.38
2022-11-24T05:37:54.459Z,97839.19
2022-11-24T05:40:59.731Z,97835.72
2022-11-24T05:44:01.072Z,97835.72
2022-11-24T05:47:02.475Z,97829.66
2022-11-24T05:50:04.143Z,97825.34
2022-11-24T05:53:05.871Z,97846.97
2022-11-24T05:56:07.282Z,97839.19
2022-11-24T05:59:10.165Z,97843.50
2022-11-24T06:02:11.738Z,97852.16
2022-11-24T06:05:13.176Z,97850.41
2022-11-24T06:08:14.604Z,97852.16
2022-11-24T06:11:18.972Z,97866.88
2022-11-24T06:14:20.339Z,97872.94
2022-11-24T06:17:21.687Z,97866.88
2022-11-24T06:20:25.134Z,97872.91
2022-11-24T06:23:29.798Z,97885.03
2022-11-24T06:26:31.180Z,97905.81
2022-11-24T06:29:32.602Z,97893.69
2022-11-24T06:32:33.945Z,97904.94
2022-11-24T06:35:35.308Z,97904.91
2022-11-24T06:38:36.783Z,97903.16
2022-11-24T06:41:38.464Z,97896.25
2022-11-24T06:44:39.854Z,97906.69
2022-11-24T06:47:41.193Z,97917.88
2022-11-24T06:50:42.523Z,97915.28
2022-11-24T06:53:43.847Z,97919.63
2022-11-24T06:56:45.195Z,97924.81
2022-11-24T06:59:46.574Z,97927.41
2022-11-24T07:02:47.964Z,97923.06
2022-11-24T07:05:49.326Z,97940.34
2022-11-24T07:08:50.676Z,97942.94
2022-11-24T07:11:52.075Z,97950.69
2022-11-24T07:14:53.439Z,97949.84
2022-11-24T07:17:54.809Z,97962.78
2022-11-24T07:20:56.443Z,97967.97
2022-11-24T07:23:57.852Z,97956.72
2022-11-24T07:26:59.169Z,97957.56
2022-11-24T07:30:00.505Z,97948.94
2022-11-24T07:33:02.002Z,97953.25
2022-11-24T07:36:03.765Z,97963.59
2022-11-24T07:39:06.177Z,97967.06
2022-11-24T07:42:08.516Z,97981.75
2022-11-24T07:45:10.102Z,97967.94
2022-11-24T07:48:11.883Z,97973.13
2022-11-24T07:51:13.215Z,97968.78
2022-11-24T07:54:14.557Z,97980.91
2022-11-24T07:57:15.870Z,97992.09
2022-11-24T08:00:17.482Z,98003.31
2022-11-24T08:03:18.920Z,97993.78
2022-11-24T08:06:27.324Z,97986.91
2022-11-24T08:09:31.797Z,97988.63
2022-11-24T08:12:33.282Z,97986.03
2022-11-24T08:15:34.779Z,97985.19
2022-11-24T08:18:36.137Z,97997.28
2022-11-24T08:21:37.914Z,98002.47
2022-11-24T08:24:45.930Z,98011.97
2022-11-24T08:27:47.242Z,98010.22
2022-11-24T08:30:48.588Z,98017.13
2022-11-24T08:33:49.973Z,98004.19
2022-11-24T08:36:51.691Z,98001.63
2022-11-24T08:39:53.039Z,98006.81
2022-11-24T08:42:57.293Z,97999.88
2022-11-24T08:46:02.243Z,98004.22
2022-11-24T08:49:06.194Z,97999.97
2022-11-24T08:52:07.528Z,98004.31
2022-11-24T08:55:09.117Z,98002.56
2022-11-24T08:58:10.476Z,97998.28
2022-11-24T09:01:12.839Z,98010.38
2022-11-24T09:04:14.323Z,98013.84
2022-11-24T09:07:15.735Z,98015.63
2022-11-24T09:10:17.188Z,98013.97
2022-11-24T09:13:18.506Z,98023.47
2022-11-24T09:16:20.733Z,98024.31
2022-11-24T09:19:22.294Z,98020.00
2022-11-24T09:22:23.601Z,98021.75
2022-11-24T09:25:25.045Z,98034.78
2022-11-24T09:28:26.439Z,98047.75
2022-11-24T09:31:31.665Z,98035.63
2022-11-24T09:34:33.323Z,98039.09
2022-11-24T09:37:35.599Z,98048.59
2022-11-24T09:40:36.946Z,98049.47
2022-11-24T09:43:44.729Z,98054.66
2022-11-24T09:46:55.213Z,98063.31
2022-11-24T09:49:58.971Z,98066.75
2022-11-24T09:53:03.750Z,98060.69
2022-11-24T09:56:12.388Z,98082.31
2022-11-24T09:59:17.336Z,98077.09
2022-11-24T10:02:18.739Z,98084.91
2022-11-24T10:05:20.188Z,98105.69
2022-11-24T10:08:24.662Z,98110.00
2022-11-24T10:11:30.621Z,98123.03
2022-11-24T10:14:36.822Z,98144.69
2022-11-24T10:17:57.107Z,98159.44
2022-11-24T10:20:58.378Z,98162.88
2022-11-24T10:24:18.123Z,98168.03
2022-11-24T10:27:20.052Z,98193.22
2022-11-24T10:30:21.778Z,98209.69
2022-11-24T10:33:30.380Z,98209.72
2022-11-24T10:36:52.561Z,98215.78
2022-11-24T10:39:58.586Z,98230.56
2022-11-24T10:43:01.321Z,98234.88
2022-11-24T10:46:15.330Z,98241.66
2022-11-24T10:49:18.685Z,98255.38
2022-11-24T10:52:20.156Z,98286.84
2022-11-24T10:55:21.765Z,98290.38
2022-11-24T10:58:26.758Z,98292.97
2022-11-24T11:01:28.936Z,98296.47
2022-11-24T11:04:34.097Z,98303.41
2022-11-24T11:07:35.468Z,98312.94
2022-11-24T11:10:36.875Z,98300.78
2022-11-24T11:13:38.249Z,98299.91
2022-11-24T11:16:52.445Z,98306.00
2022-11-24T11:20:01.966Z,98309.50
2022-11-24T11:23:13.653Z,98310.34
2022-11-24T11:26:35.282Z,98329.44
2022-11-24T11:36:22.518Z,98355.47
2022-11-24T11:39:29.241Z,98358.06
2022-11-24T11:43:01.522Z,98365.88
2022-11-24T11:46:05.555Z,98358.94
2022-11-24T11:49:08.626Z,98364.16
2022-11-24T11:52:16.187Z,98365.84
2022-11-24T11:55:36.018Z,98361.53
2022-11-24T11:59:13.061Z,98362.34
2022-11-24T12:02:32.478Z,98353.66
2022-11-24T12:05:37.341Z,98360.63
2022-11-24T12:09:11.366Z,98351.91
2022-11-24T12:12:08.832Z,98364.09
2022-11-24T12:15:13.235Z,98359.78
2022-11-24T12:18:55.112Z,98362.38
2022-11-24T12:21:52.107Z,98377.13
2022-11-24T12:24:56.735Z,98385.81
2022-11-24T12:28:03.361Z,98388.44
2022-11-24T12:31:06.630Z,98401.44
2022-11-24T12:34:08.015Z,98397.97
2022-11-24T12:37:28.128Z,98406.66
2022-11-24T12:40:43.616Z,98406.66
2022-11-24T12:43:57.478Z,98409.25
2022-11-24T12:47:14.072Z,98400.56
2022-11-24T12:50:19.193Z,98404.91
2022-11-24T12:53:28.103Z,98401.44
2022-11-24T12:56:31.653Z,98399.69
2022-11-24T12:59:51.754Z,98412.69
2022-11-24T13:03:15.974Z,98407.50
2022-11-24T13:06:18.254Z,98404.91
2022-11-24T13:09:20.065Z,98403.19
2022-11-24T13:12:21.391Z,98406.69
2022-11-24T13:15:44.544Z,98402.31
2022-11-24T13:18:52.345Z,98384.94
2022-11-24T13:21:59.721Z,98362.38
2022-11-24T13:25:14.652Z,98340.72
2022-11-24T13:29:00.418Z,98336.34
2022-11-24T13:32:03.057Z,98332.88
2022-11-24T13:35:12.312Z,98332.03
2022-11-24T13:38:32.510Z,98319.91
2022-11-24T13:41:34.196Z,98313.81
2022-11-24T13:44:42.982Z,98317.28
2022-11-24T13:47:45.194Z,98319.00
2022-11-24T13:50:49.540Z,98328.53
2022-11-24T13:53:50.919Z,98325.09
2022-11-24T13:56:52.308Z,98310.34
2022-11-24T13:59:53.643Z,98295.59
2022-11-24T14:02:59.726Z,98290.38
2022-11-24T14:06:01.124Z,98279.09
2022-11-24T14:09:05.033Z,98266.06
2022-11-24T14:12:16.294Z,98266.03
2022-11-24T14:15:21.815Z,98261.72
2022-11-24T14:18:24.995Z,98255.66
2022-11-24T14:21:41.250Z,98252.19
2022-11-24T14:24:45.231Z,98252.16
2022-11-24T14:27:46.777Z,98247.81
2022-11-24T14:30:48.179Z,98245.16
2022-11-24T14:33:49.631Z,98232.13
2022-11-24T14:36:51.458Z,98234.72
2022-11-24T14:39:52.792Z,98231.22
2022-11-24T14:42:54.319Z,98220.00
2022-11-24T14:45:56.315Z,98214.81
2022-11-24T14:48:57.677Z,98214.81
2022-11-24T14:52:00.607Z,98198.31
2022-11-24T14:55:21.449Z,98201.78
2022-11-24T14:58:30.349Z,98195.72
2022-11-24T15:01:32.866Z,98191.38
2022-11-24T15:08:00.629Z,98190.50
2022-11-24T15:11:02.410Z,98186.13
2022-11-24T15:14:03.745Z,98178.34
2022-11-24T15:17:05.279Z,98172.28
2022-11-24T15:20:10.740Z,98172.28
2022-11-24T15:23:12.099Z,98167.84
2022-11-24T15:26:13.407Z,98159.19
2022-11-24T15:29:14.770Z,98174.75
2022-11-24T15:32:16.092Z,98166.09
2022-11-24T15:35:17.556Z,98162.63
2022-11-24T15:38:19.221Z,98175.59
2022-11-24T15:41:20.989Z,98172.97
2022-11-24T15:44:22.313Z,98176.44
2022-11-24T15:47:23.657Z,98167.78
2022-11-24T15:50:25.088Z,98169.47
2022-11-24T15:53:29.423Z,98164.25
2022-11-24T15:56:31.931Z,98165.06
2022-11-24T15:59:33.881Z,98166.75
2022-11-24T16:02:35.355Z,98157.19
2022-11-24T16:05:37.399Z,98153.66
2022-11-24T16:08:38.735Z,98162.28
2022-11-24T16:11:40.193Z,98169.13
2022-11-24T16:14:41.673Z,98175.13
2022-11-24T16:17:43.097Z,98176.81
2022-11-24T16:20:44.454Z,98179.34
2022-11-24T16:23:46.510Z,98189.66
2022-11-24T16:26:47.991Z,98180.09
2022-11-24T16:29:49.476Z,98177.47
2022-11-24T16:32:50.815Z,98177.31
2022-11-24T16:35:52.248Z,98176.28
2022-11-24T16:38:53.641Z,98188.28
2022-11-24T16:41:55.024Z,98186.41
2022-11-24T16:44:56.429Z,98188.03
2022-11-24T16:47:57.800Z,98186.22
2022-11-24T16:51:04.285Z,98183.63
2022-11-24T16:54:05.884Z,98179.31
2022-11-24T16:57:13.251Z,98170.63
2022-11-24T17:00:16.241Z,98175.00
2022-11-24T17:03:17.627Z,98175.00
2022-11-24T17:06:18.978Z,98174.78
2022-11-24T17:09:20.378Z,98170.31
2022-11-24T17:12:21.768Z,98178.03
2022-11-24T17:15:33.609Z,98184.91
2022-11-24T17:18:37.213Z,98182.31
2022-11-24T17:21:38.647Z,98182.31
2022-11-24T17:24:40.194Z,98184.91
2022-11-24T17:27:41.654Z,98196.09
2022-11-24T17:30:42.990Z,98198.59
2022-11-24T17:33:44.369Z,98204.69
2022-11-24T17:36:46.094Z,98198.69
2022-11-24T17:40:12.525Z,98200.44
2022-11-24T17:43:08.922Z,98201.19
2022-11-24T17:46:10.487Z,98195.13
2022-11-24T17:49:13.403Z,98183.06
2022-11-24T17:52:15.813Z,98191.69
2022-11-24T17:55:17.175Z,98186.41
2022-11-24T17:58:18.538Z,98184.69
2022-11-24T18:01:19.967Z,98192.44
2022-11-24T18:04:21.366Z,98192.38
2022-11-24T18:07:22.797Z,98185.47
2022-11-24T18:10:24.225Z,98194.94
2022-11-24T18:13:54.478Z,98179.38
2022-11-24T18:16:46.949Z,98182.03
2022-11-24T18:19:51.176Z,98181.91
2022-11-24T18:23:05.687Z,98181.84
2022-11-24T18:26:07.609Z,98175.69
2022-11-24T18:29:09.313Z,98178.16
2022-11-24T18:32:10.639Z,98172.84
2022-11-24T18:35:12.066Z,98177.16
2022-11-24T18:38:13.442Z,98171.91
2022-11-24T18:41:14.871Z,98168.34
2022-11-24T18:44:16.194Z,98166.53
2022-11-24T18:47:17.510Z,98166.47
2022-11-24T18:50:19.249Z,98177.66
2022-11-24T18:53:20.807Z,98169.00
2022-11-24T18:56:22.126Z,98174.09
2022-11-24T18:59:23.488Z,98172.28
2022-11-24T19:02:24.869Z,98168.56
2022-11-24T19:05:26.272Z,98171.91
2022-11-24T19:08:27.618Z,98170.84
2022-11-24T19:11:29.712Z,98170.59
2022-11-24T19:14:31.095Z,98172.25
2022-11-24T19:17:32.457Z,98172.16
2022-11-24T19:20:34.078Z,98170.41
2022-11-24T19:23:37.425Z,98176.38
2022-11-24T19:26:39.444Z,98161.84
2022-11-24T19:29:43.439Z,98176.28
2022-11-24T19:32:45.155Z,98171.94
2022-11-24T19:35:46.536Z,98176.19
2022-11-24T19:38:54.888Z,98176.06
2022-11-24T19:41:56.374Z,98181.13
2022-11-24T19:44:57.727Z,98169.16
2022-11-24T19:47:59.073Z,98171.66
2022-11-24T19:51:01.041Z,98183.59
2022-11-24T19:54:02.722Z,98181.78
2022-11-24T19:57:04.086Z,98179.97
2022-11-24T20:00:06.473Z,98164.72
2022-11-24T20:03:08.019Z,98166.41
2022-11-24T20:06:09.860Z,98166.50
2022-11-24T20:09:12.075Z,98169.00
2022-11-24T20:12:13.412Z,98162.06
2022-11-24T20:15:14.750Z,98177.44
2022-11-24T20:18:16.157Z,98176.63
2022-11-24T20:21:18.500Z,98174.75
2022-11-24T20:24:20.558Z,98171.31
2022-11-24T20:27:21.871Z,98178.13
2022-11-24T20:30:23.198Z,98175.44
2022-11-24T20:33:24.592Z,98166.06
2022-11-24T20:36:26.178Z,98162.59
2022-11-24T20:39:27.844Z,98167.69
2022-11-24T20:42:29.452Z,98163.41
2022-11-24T20:45:30.924Z,98166.81
2022-11-24T20:48:33.199Z,98173.09
2022-11-24T20:51:35.466Z,98164.25
2022-11-24T20:54:37.191Z,98171.13
2022-11-24T20:57:38.718Z,98177.16
2022-11-24T21:00:40.532Z,98167.84
2022-11-24T21:03:43.450Z,98172.03
2022-11-24T21:06:45.130Z,98167.72
2022-11-24T21:09:46.455Z,98167.69
2022-11-24T21:12:47.788Z,98163.41
2022-11-24T21:15:49.459Z,98159.19
2022-11-24T21:18:51.458Z,98158.94
2022-11-24T21:21:52.809Z,98149.50
2022-11-24T21:24:54.173Z,98156.38
2022-11-24T21:27:55.500Z,98163.31
2022-11-24T21:30:56.873Z,98170.88
2022-11-24T21:33:58.775Z,98164.88
2022-11-24T21:37:00.201Z,98161.53
2022-11-24T21:40:01.604Z,98162.50
2022-11-24T21:43:03.489Z,98168.22
2022-11-24T21:46:05.719Z,98169.72
2022-11-24T21:49:07.160Z,98159.50
2022-11-24T21:52:08.476Z,98161.97
2022-11-24T21:55:09.945Z,98162.06
2022-11-24T21:58:11.282Z,98161.03
2022-11-24T22:01:12.780Z,98153.97
2022-11-24T22:04:14.149Z,98154.66
2022-11-24T22:07:15.535Z,98157.19
2022-11-24T22:10:16.929Z,98149.41
2022-11-24T22:13:18.444Z,98154.19
2022-11-24T22:16:23.445Z,98147.44
2022-11-24T22:19:24.815Z,98143.13
2022-11-24T22:22:26.160Z,98146.63
2022-11-24T22:25:27.542Z,98140.72
2022-11-24T22:28:30.304Z,98134.81
2022-11-24T22:31:32.202Z,98148.28
2022-11-24T22:34:34.035Z,98152.56
2022-11-24T22:37:35.503Z,98158.66
2022-11-24T22:40:36.825Z,98159.50
2022-11-24T22:43:38.602Z,98162.09
2022-11-24T22:46:39.949Z,98156.97
2022-11-24T22:49:41.289Z,98160.34
2022-11-24T22:52:42.628Z,98166.38
2022-11-24T22:55:43.986Z,98164.69
2022-11-24T22:58:45.398Z,98167.31
2022-11-24T23:01:46.719Z,98163.06
2022-11-24T23:04:48.071Z,98172.56
2022-11-24T23:07:49.610Z,98169.16
2022-11-24T23:10:51.019Z,98170.97
2022-11-24T23:13:52.895Z,98160.59
2022-11-24T23:16:54.543Z,98168.25
2022-11-24T23:19:55.980Z,98164.75
2022-11-24T23:22:57.361Z,98172.06
2022-11-24T23:26:02.220Z,98172.94
2022-11-24T23:29:04.047Z,98174.72
2022-11-24T23:32:05.570Z,98175.63
2022-11-24T23:35:12.335Z,98171.34
2022-11-24T23:38:15.069Z,98167.00
2022-11-24T23:41:17.270Z,98160.03
2022-11-24T23:44:18.638Z,98163.28
2022-11-24T23:47:19.953Z,98154.59
2022-11-24T23:50:21.328Z,98157.22
2022-11-24T23:53:22.692Z,98146.97
2022-11-24T23:56:24.931Z,98149.59
2022-11-24T23:59:26.918Z,98144.44
